CheckWX is a tool to help pilots better visualize weather data.  It is not intended as a substitute for an official pre-flight weather briefing.

20:30:03 UTC

ENRA TAF
Mo i Rana , Røssvoll Airport
Mo i Rana, Norway
TAF ENRA 221700Z 2218/2223 09008KT 9999 -RA FEW005 BKN020 TEMPO 2218/2223 4000 RADZ BKN012

Mar-22@
18:00 UTC

Mar-22 @ 18:00 UTC

Mar-22@
23:00 UTC

Mar-22 @ 23:00 UTC

TAF ENRA 221700Z 2218/2223 09008KT 9999 -RA FEW005 BKN020
Wind
  • 090° at 8 KTS
Conditions
Light Rain
Cloud Levels
  • Few at 500' AGL
  • Broken at 2,000' AGL

Mar-22@
18:00 UTC

Mar-22 @ 18:00 UTC

Mar-22@
23:00 UTC

Mar-22 @ 23:00 UTC

TEMPO 2218/2223 4000 RADZ BKN012

Temporary

Temporary Changes expected for less than half the time period

Conditions
Rain, Drizzle
Cloud Levels
  • Broken at 1,200' AGL